Time;durP1;ratioP1;P1;durP2;ratioP2;P2;SDS_P1;SDS_P2;PMS_P1;PMS_P2;Temp;Humidity;BMP_temperature;BMP_pressure;BME280_temperature;BME280_humidity;BME280_pressure;Samples;Min_cycle;Max_cycle;Signal;HPM_P1;HPM_P2
2023/05/07 00:00:07;;;;;;;4.68;1.65;;;16.50;99.90;;;;;;4990270;28;20041;-68
2023/05/07 00:02:33;;;;;;;1.38;0.98;;;16.50;99.90;;;;;;4988089;28;20372;-68
2023/05/07 00:04:59;;;;;;;4.70;1.20;;;16.40;99.90;;;;;;4989685;28;20054;-68
2023/05/07 00:07:25;;;;;;;6.30;2.83;;;16.20;99.90;;;;;;4986572;28;20118;-68
2023/05/07 00:09:51;;;;;;;2.70;1.20;;;16.20;99.90;;;;;;4989711;28;20104;-68
2023/05/07 00:12:17;;;;;;;3.33;1.33;;;16.30;99.90;;;;;;4989502;28;20026;-68
2023/05/07 00:14:42;;;;;;;5.05;1.05;;;16.30;99.90;;;;;;4993524;28;20026;-68
2023/05/07 00:17:08;;;;;;;2.20;1.17;;;16.20;99.90;;;;;;4990060;28;20037;-68
2023/05/07 00:19:34;;;;;;;2.47;1.05;;;16.20;99.90;;;;;;4993508;28;20265;-68
2023/05/07 00:22:00;;;;;;;3.08;1.85;;;16.20;99.90;;;;;;4989518;28;20026;-69
2023/05/07 00:24:26;;;;;;;2.88;1.33;;;16.00;99.90;;;;;;4993249;28;20030;-68
2023/05/07 00:26:52;;;;;;;2.47;1.27;;;16.10;99.90;;;;;;4991302;28;20046;-68
2023/05/07 00:29:18;;;;;;;2.13;1.30;;;16.10;99.90;;;;;;4994931;28;20031;-68
2023/05/07 00:31:44;;;;;;;1.83;1.10;;;16.00;99.90;;;;;;4989775;28;20030;-69
2023/05/07 00:34:09;;;;;;;2.90;1.50;;;16.00;99.90;;;;;;4994070;28;20450;-68
2023/05/07 00:36:35;;;;;;;1.80;1.02;;;16.00;99.90;;;;;;4991181;28;20050;-69
2023/05/07 00:39:03;;;;;;;2.63;1.33;;;16.00;99.90;;;;;;4993054;28;20062;-68
2023/05/07 00:41:30;;;;;;;1.80;0.95;;;16.00;99.90;;;;;;4990949;28;20131;-68
2023/05/07 00:43:56;;;;;;;1.77;1.05;;;16.00;99.90;;;;;;4994021;28;20026;-68
2023/05/07 00:46:23;;;;;;;2.30;1.17;;;15.90;99.90;;;;;;4990489;28;20125;-68
2023/05/07 00:48:52;;;;;;;1.88;1.23;;;15.90;99.90;;;;;;4976939;28;20482;-68
2023/05/07 00:51:18;;;;;;;2.53;1.20;;;15.90;99.90;;;;;;4989716;28;20051;-68
2023/05/07 00:53:45;;;;;;;2.47;1.15;;;15.90;99.90;;;;;;4992423;28;20030;-68
2023/05/07 00:56:11;;;;;;;5.00;1.02;;;15.80;99.90;;;;;;4982054;28;20055;-68
2023/05/07 00:58:37;;;;;;;3.83;1.42;;;15.80;99.90;;;;;;4984992;28;20019;-68
2023/05/07 01:01:03;;;;;;;1.80;1.10;;;15.60;99.90;;;;;;4973094;28;20030;-68
2023/05/07 01:03:29;;;;;;;4.38;1.83;;;15.60;99.90;;;;;;4992273;28;20437;-68
2023/05/07 01:05:57;;;;;;;3.05;1.73;;;15.50;99.90;;;;;;4986943;28;20154;-68
2023/05/07 01:08:24;;;;;;;3.35;1.60;;;15.40;99.90;;;;;;4948107;28;20027;-68
2023/05/07 01:10:51;;;;;;;2.42;1.63;;;15.40;99.90;;;;;;4968126;28;20521;-68
2023/05/07 01:13:18;;;;;;;2.55;1.35;;;15.30;99.90;;;;;;4992060;28;20457;-68
2023/05/07 01:15:44;;;;;;;3.00;1.60;;;15.20;99.90;;;;;;4980762;28;20026;-68
2023/05/07 01:18:10;;;;;;;2.33;1.20;;;15.10;99.90;;;;;;4993545;28;20111;-68
2023/05/07 01:20:36;;;;;;;5.60;1.75;;;15.10;99.90;;;;;;4991666;28;20029;-68
2023/05/07 01:23:03;;;;;;;2.80;1.70;;;15.00;99.90;;;;;;4991204;28;20030;-69
2023/05/07 01:25:30;;;;;;;5.25;1.67;;;15.00;99.90;;;;;;4972498;28;20054;-68
2023/05/07 01:27:56;;;;;;;3.17;1.85;;;15.00;99.90;;;;;;4990515;28;20085;-68
2023/05/07 01:30:22;;;;;;;2.55;1.52;;;15.00;99.90;;;;;;4993501;28;20627;-68
2023/05/07 01:32:51;;;;;;;1.27;0.95;;;15.00;99.90;;;;;;4988321;28;20514;-68
2023/05/07 01:35:34;;;;;;;3.08;1.42;;;14.90;99.90;;;;;;4993261;28;20049;-68
2023/05/07 01:38:00;;;;;;;2.42;1.40;;;14.90;99.90;;;;;;4991815;28;20385;-68
2023/05/07 01:40:27;;;;;;;3.13;1.15;;;14.80;99.90;;;;;;4989131;28;20356;-68
2023/05/07 01:42:54;;;;;;;3.40;1.50;;;14.80;99.90;;;;;;4988130;28;20117;-68
2023/05/07 01:45:20;;;;;;;8.90;1.52;;;14.60;99.90;;;;;;4991725;28;20390;-68
2023/05/07 01:47:46;;;;;;;2.78;1.23;;;14.70;99.90;;;;;;4989213;28;20144;-68
2023/05/07 01:50:12;;;;;;;2.40;1.30;;;14.70;99.90;;;;;;4993319;28;20521;-68
2023/05/07 01:52:38;;;;;;;2.20;1.55;;;14.60;99.90;;;;;;4989480;28;20030;-68
2023/05/07 01:55:06;;;;;;;2.05;0.90;;;14.60;99.90;;;;;;4992625;28;20027;-68
2023/05/07 01:57:31;;;;;;;1.70;0.95;;;14.60;99.90;;;;;;4988117;28;20074;-68
2023/05/07 01:59:57;;;;;;;2.67;1.50;;;14.60;99.90;;;;;;4991767;28;20053;-68
2023/05/07 02:02:23;;;;;;;2.45;1.10;;;14.60;99.90;;;;;;4989188;28;20037;-68
2023/05/07 02:04:48;;;;;;;2.38;1.30;;;14.70;99.90;;;;;;4992737;28;20510;-68
2023/05/07 02:07:14;;;;;;;2.50;1.05;;;14.70;99.90;;;;;;4988810;28;20417;-68
2023/05/07 02:09:40;;;;;;;1.67;1.05;;;14.70;99.90;;;;;;4991385;28;20398;-68
2023/05/07 02:12:06;;;;;;;1.63;1.10;;;14.70;99.90;;;;;;4988901;28;20509;-68
2023/05/07 02:14:32;;;;;;;1.85;1.17;;;14.70;99.90;;;;;;4988379;28;20180;-68
2023/05/07 02:16:57;;;;;;;2.90;1.35;;;14.70;99.90;;;;;;4981444;28;20034;-68
2023/05/07 02:19:23;;;;;;;1.83;1.10;;;14.60;99.90;;;;;;4990916;28;20022;-68
2023/05/07 02:21:49;;;;;;;1.77;1.00;;;14.40;99.90;;;;;;4987661;28;20035;-68
2023/05/07 02:24:15;;;;;;;2.22;1.17;;;14.40;99.90;;;;;;4991901;28;20061;-68
2023/05/07 02:26:41;;;;;;;2.72;1.30;;;14.50;99.90;;;;;;4988165;28;20084;-68
2023/05/07 02:29:07;;;;;;;1.73;1.45;;;14.50;99.90;;;;;;4992098;28;20034;-68
2023/05/07 02:31:33;;;;;;;1.52;0.88;;;14.50;99.90;;;;;;4987915;28;20034;-68
2023/05/07 02:34:00;;;;;;;2.35;1.38;;;14.50;99.90;;;;;;4989852;28;20034;-68
2023/05/07 02:36:29;;;;;;;1.75;1.00;;;14.40;99.90;;;;;;4988589;28;20482;-68
2023/05/07 02:38:54;;;;;;;6.57;1.40;;;14.20;99.90;;;;;;4990798;28;20031;-68
2023/05/07 02:41:20;;;;;;;5.00;1.70;;;14.10;99.90;;;;;;4988930;28;20062;-68
2023/05/07 02:43:46;;;;;;;1.85;1.00;;;14.20;99.90;;;;;;4990376;28;21088;-69
2023/05/07 02:46:12;;;;;;;3.03;1.55;;;14.30;99.90;;;;;;5001550;23;20071;-75
2023/05/07 02:48:38;;;;;;;3.58;1.42;;;14.40;99.90;;;;;;4972647;28;20410;-78
2023/05/07 02:51:05;;;;;;;1.48;1.10;;;14.40;99.90;;;;;;4990065;28;20077;-79
2023/05/07 02:53:31;;;;;;;3.35;1.50;;;14.30;99.90;;;;;;4982744;28;20477;-79
2023/05/07 02:56:00;;;;;;;4.75;1.70;;;14.30;99.90;;;;;;4990671;28;20121;-79
2023/05/07 02:58:26;;;;;;;1.80;0.95;;;14.20;99.90;;;;;;4982808;28;20027;-79
2023/05/07 03:00:54;;;;;;;2.38;1.33;;;14.30;99.90;;;;;;4990596;28;20678;-78
2023/05/07 03:03:20;;;;;;;1.95;1.27;;;14.30;99.90;;;;;;4980729;28;20030;-78
2023/05/07 03:05:46;;;;;;;6.13;1.20;;;14.30;99.90;;;;;;4990561;28;20038;-78
2023/05/07 03:08:12;;;;;;;2.33;1.35;;;14.30;99.90;;;;;;4981353;28;20117;-78
2023/05/07 03:10:38;;;;;;;2.38;1.23;;;14.20;99.90;;;;;;4990725;28;20057;-78
2023/05/07 03:13:05;;;;;;;3.72;1.45;;;14.30;99.90;;;;;;4982142;28;20066;-79
2023/05/07 03:15:30;;;;;;;4.90;1.60;;;14.20;99.90;;;;;;4996295;28;20047;-78
2023/05/07 03:17:56;;;;;;;2.47;1.17;;;14.20;99.90;;;;;;4975731;28;20038;-78
2023/05/07 03:20:22;;;;;;;2.22;1.15;;;14.20;99.90;;;;;;4991616;28;20022;-78
2023/05/07 03:22:48;;;;;;;2.55;1.70;;;14.20;99.90;;;;;;4982527;28;20494;-78
2023/05/07 03:25:14;;;;;;;3.08;1.35;;;14.20;99.90;;;;;;4991064;28;20030;-78
2023/05/07 03:27:41;;;;;;;2.30;1.30;;;14.10;99.90;;;;;;4982614;28;20719;-78
2023/05/07 03:30:08;;;;;;;2.35;1.20;;;14.10;99.90;;;;;;4981902;28;20038;-78
2023/05/07 03:32:35;;;;;;;2.58;1.60;;;14.00;99.90;;;;;;4981129;28;20088;-78
2023/05/07 03:35:02;;;;;;;2.85;1.40;;;13.90;99.90;;;;;;4973578;28;20223;-78
2023/05/07 03:37:28;;;;;;;2.17;1.17;;;13.90;99.90;;;;;;4982426;28;20023;-78
2023/05/07 03:39:53;;;;;;;10.93;2.17;;;13.90;99.90;;;;;;4991301;28;20045;-78
2023/05/07 03:42:19;;;;;;;2.63;1.20;;;13.80;99.90;;;;;;4982208;28;20506;-78
2023/05/07 03:44:45;;;;;;;5.95;1.70;;;13.80;99.90;;;;;;4991996;28;20031;-78
2023/05/07 03:47:11;;;;;;;3.40;1.70;;;13.80;99.90;;;;;;4986171;28;20153;-78
2023/05/07 03:49:37;;;;;;;2.03;1.40;;;13.70;99.90;;;;;;4995194;28;20038;-78
2023/05/07 03:52:02;;;;;;;4.00;1.42;;;13.70;99.90;;;;;;5001300;28;20038;-78
2023/05/07 03:54:28;;;;;;;2.78;1.30;;;13.70;99.90;;;;;;4994693;28;20057;-78
2023/05/07 03:56:54;;;;;;;2.80;1.38;;;13.70;99.90;;;;;;4986449;28;20042;-78
2023/05/07 03:59:19;;;;;;;2.20;1.20;;;13.50;99.90;;;;;;4993776;28;20023;-78
2023/05/07 04:01:45;;;;;;;1.80;1.17;;;13.50;99.90;;;;;;4986512;28;20042;-78
2023/05/07 04:04:11;;;;;;;3.45;1.55;;;13.40;99.90;;;;;;4994523;28;20029;-78
2023/05/07 04:06:37;;;;;;;3.72;1.25;;;13.30;99.90;;;;;;4987566;28;20078;-78
2023/05/07 04:09:03;;;;;;;1.80;1.17;;;13.30;99.90;;;;;;4993926;28;20061;-78
2023/05/07 04:11:29;;;;;;;2.55;1.30;;;13.30;99.90;;;;;;4988634;28;20527;-79
2023/05/07 04:13:55;;;;;;;1.80;1.00;;;13.40;99.90;;;;;;4990859;28;20041;-78
2023/05/07 04:16:20;;;;;;;2.38;1.10;;;13.40;99.90;;;;;;4959753;28;20085;-78
2023/05/07 04:18:46;;;;;;;2.42;1.48;;;13.40;99.90;;;;;;4987651;28;20022;-78
2023/05/07 04:21:17;;;;;;;2.40;1.33;;;13.50;99.90;;;;;;4993320;28;20034;-78
2023/05/07 04:23:43;;;;;;;2.53;1.35;;;13.50;99.90;;;;;;4987918;28;20046;-78
2023/05/07 04:26:09;;;;;;;2.40;1.30;;;13.60;99.90;;;;;;4992686;28;20089;-78
2023/05/07 04:28:35;;;;;;;3.42;1.33;;;13.60;99.90;;;;;;4986453;28;20026;-78
2023/05/07 04:31:01;;;;;;;1.73;1.10;;;13.60;99.90;;;;;;4994886;28;20572;-78
2023/05/07 04:33:27;;;;;;;3.53;1.60;;;13.50;99.90;;;;;;4985300;28;20038;-78
2023/05/07 04:35:52;;;;;;;3.13;1.33;;;13.50;99.90;;;;;;4992931;28;20118;-79
2023/05/07 04:38:18;;;;;;;7.03;2.83;;;13.60;99.90;;;;;;4985362;28;20030;-79
2023/05/07 04:40:44;;;;;;;11.38;5.90;;;13.70;99.90;;;;;;4994134;28;20489;-78
2023/05/07 04:43:10;;;;;;;4.28;2.28;;;13.80;99.90;;;;;;4984794;28;20126;-78
2023/05/07 04:45:36;;;;;;;2.80;1.58;;;13.90;99.90;;;;;;4994242;28;20109;-78
2023/05/07 04:48:03;;;;;;;6.95;4.32;;;14.00;99.90;;;;;;4985179;28;20524;-78
2023/05/07 04:50:28;;;;;;;3.47;1.98;;;14.10;99.90;;;;;;4993981;28;20097;-79
2023/05/07 04:52:54;;;;;;;2.78;1.63;;;14.10;99.90;;;;;;4984995;28;20030;-79
2023/05/07 04:55:20;;;;;;;2.17;1.60;;;14.10;99.90;;;;;;4993944;28;20037;-79
2023/05/07 04:57:46;;;;;;;1.63;1.10;;;14.20;99.90;;;;;;4984336;28;20035;-79
2023/05/07 05:00:14;;;;;;;3.20;1.67;;;14.30;99.90;;;;;;4993787;28;20050;-78
2023/05/07 05:02:40;;;;;;;4.60;1.50;;;14.30;99.90;;;;;;4985153;28;20113;-79
2023/05/07 05:05:07;;;;;;;2.97;1.50;;;14.40;99.90;;;;;;4992287;28;20031;-79
2023/05/07 05:07:33;;;;;;;2.65;1.40;;;14.40;99.90;;;;;;4984846;28;20483;-79
2023/05/07 05:09:59;;;;;;;2.65;1.30;;;14.40;99.90;;;;;;4976466;28;20042;-78
2023/05/07 05:12:25;;;;;;;3.80;1.42;;;14.50;99.90;;;;;;4967577;28;20033;-78
2023/05/07 05:14:51;;;;;;;3.65;1.42;;;14.50;99.90;;;;;;4987956;28;20022;-79
2023/05/07 05:17:17;;;;;;;2.53;1.40;;;14.50;99.90;;;;;;4974676;28;20038;-78
2023/05/07 05:19:43;;;;;;;3.30;1.80;;;14.50;99.90;;;;;;4993584;28;20164;-79
2023/05/07 05:22:09;;;;;;;3.47;1.55;;;14.60;99.90;;;;;;4984860;28;20030;-79
2023/05/07 05:24:34;;;;;;;3.97;2.15;;;14.70;99.90;;;;;;4993401;28;20117;-79
2023/05/07 05:27:01;;;;;;;4.13;1.75;;;14.80;99.90;;;;;;4984627;28;20503;-78
2023/05/07 05:29:26;;;;;;;9.07;1.75;;;14.80;99.90;;;;;;4992087;28;20172;-78
2023/05/07 05:31:52;;;;;;;5.82;1.30;;;14.90;99.90;;;;;;4984033;28;20114;-79
2023/05/07 05:34:19;;;;;;;3.45;1.45;;;15.00;99.90;;;;;;4992696;28;20041;-79
2023/05/07 05:36:45;;;;;;;2.88;1.40;;;15.00;99.90;;;;;;4983064;28;20098;-79
2023/05/07 05:39:11;;;;;;;4.07;1.67;;;15.10;99.90;;;;;;4986818;28;20499;-79
2023/05/07 05:41:37;;;;;;;2.03;1.30;;;15.10;99.90;;;;;;4955066;28;20050;-79
2023/05/07 05:44:02;;;;;;;2.75;1.42;;;15.20;99.90;;;;;;4990292;28;20069;-78
2023/05/07 05:46:28;;;;;;;3.25;1.83;;;15.30;99.90;;;;;;4987762;28;20042;-79
2023/05/07 05:48:54;;;;;;;2.45;1.13;;;15.40;99.90;;;;;;4989484;28;20026;-78
2023/05/07 05:51:21;;;;;;;2.20;1.20;;;15.60;99.90;;;;;;4988908;28;20031;-79
2023/05/07 05:53:47;;;;;;;3.05;1.35;;;15.60;99.90;;;;;;4986112;28;20512;-79
2023/05/07 05:56:13;;;;;;;3.13;1.50;;;15.60;99.90;;;;;;4991588;28;20034;-78
2023/05/07 05:58:38;;;;;;;2.10;1.40;;;15.60;99.90;;;;;;4988072;28;20022;-79
2023/05/07 06:01:05;;;;;;;2.55;1.60;;;15.70;99.90;;;;;;4986831;28;20098;-78
2023/05/07 06:03:32;;;;;;;8.18;3.22;;;15.80;99.90;;;;;;4986264;28;20068;-78
2023/05/07 06:05:59;;;;;;;3.30;1.55;;;15.80;99.90;;;;;;5007952;28;20038;-78
2023/05/07 06:08:26;;;;;;;4.13;1.35;;;15.90;99.90;;;;;;4982801;28;20498;-79
2023/05/07 06:10:51;;;;;;;3.13;1.45;;;16.00;99.90;;;;;;4992825;28;20053;-79
2023/05/07 06:13:17;;;;;;;2.00;1.27;;;16.20;99.90;;;;;;4976884;28;20035;-79
2023/05/07 06:15:43;;;;;;;2.10;1.30;;;16.30;99.90;;;;;;4952102;28;20387;-79
2023/05/07 06:18:09;;;;;;;2.03;1.40;;;16.50;99.90;;;;;;4977178;28;20029;-79
2023/05/07 06:20:34;;;;;;;2.13;1.33;;;16.50;99.90;;;;;;4992366;28;20137;-79
2023/05/07 06:23:00;;;;;;;2.05;1.48;;;16.70;99.90;;;;;;4983438;28;20504;-78
2023/05/07 06:25:26;;;;;;;3.55;0.93;;;16.90;99.90;;;;;;4992277;28;20048;-78
2023/05/07 06:27:51;;;;;;;1.35;1.00;;;17.00;99.90;;;;;;4983294;28;20789;-78
2023/05/07 06:30:17;;;;;;;1.83;1.40;;;17.10;99.90;;;;;;4985032;28;20038;-75
2023/05/07 06:32:43;;;;;;;3.45;1.40;;;17.20;99.90;;;;;;4981576;28;20050;-68
2023/05/07 06:35:09;;;;;;;2.25;1.25;;;17.30;99.90;;;;;;5007226;28;20496;-69
2023/05/07 06:37:34;;;;;;;4.28;1.33;;;17.50;99.90;;;;;;4983243;28;20366;-72
2023/05/07 06:40:00;;;;;;;1.65;1.10;;;17.60;99.90;;;;;;4992903;28;20034;-70
2023/05/07 06:42:26;;;;;;;4.05;1.38;;;17.60;99.90;;;;;;4985343;28;20475;-69
2023/05/07 06:44:52;;;;;;;3.10;1.52;;;17.80;99.90;;;;;;4994311;28;20045;-74
2023/05/07 06:47:17;;;;;;;4.35;1.35;;;17.90;99.90;;;;;;4999290;28;20546;-70
2023/05/07 06:49:44;;;;;;;3.13;1.40;;;17.90;99.90;;;;;;4994913;28;20044;-71
2023/05/07 06:52:10;;;;;;;1.92;0.95;;;18.10;99.90;;;;;;4984646;28;20034;-70
2023/05/07 06:54:35;;;;;;;3.67;1.08;;;18.20;99.90;;;;;;4991639;28;20453;-71
2023/05/07 06:57:01;;;;;;;2.75;1.27;;;18.30;99.90;;;;;;4985240;28;20038;-72
2023/05/07 06:59:27;;;;;;;2.25;1.27;;;18.40;99.90;;;;;;4991970;28;20034;-71
2023/05/07 07:01:53;;;;;;;2.60;1.40;;;18.50;99.90;;;;;;4984097;28;20089;-71
2023/05/07 07:04:18;;;;;;;2.60;1.35;;;18.60;99.90;;;;;;4992371;28;20026;-70
2023/05/07 07:06:45;;;;;;;3.35;1.40;;;18.50;99.90;;;;;;4983655;28;20043;-69
2023/05/07 07:09:11;;;;;;;1.90;0.90;;;18.70;99.90;;;;;;4991185;28;20034;-69
2023/05/07 07:11:36;;;;;;;2.35;1.10;;;18.80;99.90;;;;;;4984962;28;20035;-70
2023/05/07 07:14:02;;;;;;;2.13;1.05;;;18.70;99.90;;;;;;4991235;28;20042;-70
2023/05/07 07:16:28;;;;;;;3.13;1.30;;;19.00;99.90;;;;;;4988323;28;20059;-71
2023/05/07 07:18:53;;;;;;;1.30;0.85;;;19.00;99.90;;;;;;4989805;28;20084;-72
2023/05/07 07:21:19;;;;;;;1.65;0.85;;;19.00;99.90;;;;;;4972840;28;20030;-69
2023/05/07 07:23:45;;;;;;;1.02;0.70;;;19.10;99.90;;;;;;4986984;28;20383;-71
2023/05/07 07:26:11;;;;;;;1.83;1.20;;;19.30;99.90;;;;;;4991813;28;20034;-73
2023/05/07 07:28:43;;;;;;;1.23;0.82;;;19.50;99.90;;;;;;4968946;28;20460;-74
2023/05/07 07:31:09;;;;;;;2.85;0.70;;;19.30;99.90;;;;;;4958422;28;20030;-74
2023/05/07 07:33:35;;;;;;;2.63;0.88;;;19.60;99.90;;;;;;4976735;28;20488;-72
2023/05/07 07:36:01;;;;;;;3.13;0.95;;;19.60;99.90;;;;;;4970778;28;20039;-72
2023/05/07 07:38:27;;;;;;;1.80;0.98;;;19.90;99.90;;;;;;4943390;28;20043;-73
2023/05/07 07:40:53;;;;;;;2.42;1.10;;;19.70;99.90;;;;;;4964599;28;20031;-72
2023/05/07 07:43:19;;;;;;;5.78;0.88;;;19.70;99.90;;;;;;4954065;28;20031;-72
2023/05/07 07:45:45;;;;;;;0.52;0.52;;;19.50;99.90;;;;;;4991284;28;20038;-73
2023/05/07 07:48:11;;;;;;;2.40;1.00;;;19.70;99.90;;;;;;4982033;28;20037;-72
2023/05/07 07:50:38;;;;;;;4.47;0.85;;;20.00;99.90;;;;;;4985597;28;20439;-73
2023/05/07 07:53:04;;;;;;;1.85;1.10;;;20.20;99.90;;;;;;4971916;28;20038;-72
2023/05/07 07:55:30;;;;;;;1.50;1.17;;;20.30;99.90;;;;;;4971078;28;20034;-73
2023/05/07 07:57:56;;;;;;;1.13;0.70;;;20.30;99.90;;;;;;4988217;28;20027;-74
2023/05/07 08:00:22;;;;;;;2.25;0.80;;;20.30;99.90;;;;;;4970622;28;20506;-72
2023/05/07 08:02:48;;;;;;;2.17;1.10;;;20.40;99.90;;;;;;4985968;28;20544;-77
2023/05/07 08:05:15;;;;;;;2.28;1.33;;;20.30;99.90;;;;;;4989703;28;20037;-76
2023/05/07 08:07:40;;;;;;;3.45;1.17;;;20.40;99.90;;;;;;4983944;28;20034;-77
2023/05/07 08:10:07;;;;;;;1.58;0.80;;;20.30;99.90;;;;;;4989642;28;20375;-77
2023/05/07 08:12:32;;;;;;;2.78;1.40;;;20.20;99.90;;;;;;4982660;28;20085;-77
2023/05/07 08:14:58;;;;;;;1.65;0.93;;;20.10;99.90;;;;;;4989555;28;20486;-77
2023/05/07 08:17:24;;;;;;;2.17;1.00;;;19.80;99.90;;;;;;4982616;28;20040;-77
2023/05/07 08:19:50;;;;;;;3.72;1.30;;;20.00;99.90;;;;;;4990854;28;20034;-77
2023/05/07 08:22:17;;;;;;;1.98;0.95;;;19.80;99.90;;;;;;4986309;28;20030;-77
2023/05/07 08:24:47;;;;;;;1.75;1.10;;;20.00;99.90;;;;;;4967742;28;20028;-78
2023/05/07 08:27:12;;;;;;;2.30;1.40;;;20.10;99.90;;;;;;4994415;28;20105;-76
2023/05/07 08:29:38;;;;;;;3.65;1.20;;;20.10;99.90;;;;;;4977400;28;20060;-77
2023/05/07 08:32:04;;;;;;;4.05;0.85;;;20.00;99.90;;;;;;4979678;28;20498;-76
2023/05/07 08:34:30;;;;;;;1.75;0.95;;;20.30;99.90;;;;;;4994294;28;20425;-77
2023/05/07 08:36:56;;;;;;;2.13;1.10;;;20.30;99.90;;;;;;4986063;28;20562;-77
2023/05/07 08:39:22;;;;;;;2.65;1.15;;;20.40;99.90;;;;;;4994188;28;20065;-76
2023/05/07 08:41:52;;;;;;;3.00;0.75;;;20.30;99.90;;;;;;4985865;28;20511;-74
2023/05/07 08:44:22;;;;;;;3.75;0.88;;;20.50;99.90;;;;;;4992899;28;20072;-75
2023/05/07 08:46:53;;;;;;;1.15;0.73;;;20.50;99.90;;;;;;4996625;23;20067;-76
2023/05/07 08:49:20;;;;;;;2.65;1.05;;;20.60;99.90;;;;;;4973198;28;20105;-75
2023/05/07 08:51:46;;;;;;;1.67;1.15;;;20.50;99.90;;;;;;4986750;28;20031;-82
2023/05/07 08:54:15;;;;;;;2.03;0.77;;;20.50;99.90;;;;;;5004662;28;20125;-84
2023/05/07 08:56:41;;;;;;;1.58;1.00;;;20.60;99.90;;;;;;5012589;28;20061;-84
2023/05/07 08:59:07;;;;;;;1.67;0.98;;;21.00;99.90;;;;;;4980350;28;20537;-83
2023/05/07 09:01:35;;;;;;;1.05;0.70;;;20.90;99.90;;;;;;4989807;28;20636;-85
2023/05/07 09:04:01;;;;;;;1.02;0.80;;;20.80;99.90;;;;;;4990484;28;20032;-82
2023/05/07 09:06:27;;;;;;;1.17;0.80;;;21.30;99.90;;;;;;4975088;28;20073;-83
2023/05/07 09:08:54;;;;;;;2.38;1.13;;;21.60;99.90;;;;;;4990607;28;20066;-82
2023/05/07 09:11:22;;;;;;;2.05;1.00;;;21.50;99.90;;;;;;4992651;28;20092;-82
2023/05/07 09:13:49;;;;;;;1.20;0.75;;;21.00;99.90;;;;;;4989544;28;20096;-81
2023/05/07 09:16:16;;;;;;;1.60;0.80;;;21.00;99.90;;;;;;4976643;28;20034;-82
2023/05/07 09:18:45;;;;;;;2.22;0.90;;;21.10;99.90;;;;;;4989747;28;20037;-82
2023/05/07 09:21:15;;;;;;;1.73;0.93;;;21.40;99.90;;;;;;4954763;29;20522;-82
2023/05/07 09:23:41;;;;;;;2.03;0.93;;;21.10;99.90;;;;;;4987160;28;20046;-82
2023/05/07 09:26:11;;;;;;;3.70;1.00;;;21.50;99.90;;;;;;4974204;28;20042;-83
2023/05/07 09:28:41;;;;;;;1.85;0.90;;;21.60;99.90;;;;;;4983587;28;20038;-82
2023/05/07 09:31:08;;;;;;;1.98;0.70;;;21.60;99.90;;;;;;4986718;28;20380;-84
2023/05/07 09:33:34;;;;;;;1.40;0.70;;;21.60;99.90;;;;;;5002710;28;20035;-84
2023/05/07 09:36:10;;;;;;;0.93;0.70;;;21.80;99.90;;;;;;4964855;28;20031;-84
2023/05/07 09:38:37;;;;;;;1.08;0.80;;;21.50;99.90;;;;;;4986550;28;20041;-84
2023/05/07 09:41:11;;;;;;;1.30;0.90;;;21.90;99.90;;;;;;5000654;28;20057;-83
2023/05/07 09:43:39;;;;;;;1.85;0.75;;;22.00;99.90;;;;;;4978098;28;20038;-83
2023/05/07 09:46:15;;;;;;;2.03;0.90;;;21.70;99.90;;;;;;4992047;28;20030;-84
2023/05/07 09:48:44;;;;;;;0.98;0.70;;;21.80;99.90;;;;;;4993306;28;20070;-83
2023/05/07 09:51:51;;;;;;;1.30;0.80;;;22.10;99.90;;;;;;4974958;28;20118;-84
2023/05/07 09:54:18;;;;;;;5.63;0.93;;;22.50;99.90;;;;;;4978386;28;20139;-84
2023/05/07 09:56:45;;;;;;;2.97;1.17;;;22.30;99.90;;;;;;4988214;28;20083;-84
2023/05/07 09:59:16;;;;;;;1.17;0.85;;;22.00;99.90;;;;;;4986134;28;20026;-84
2023/05/07 10:01:43;;;;;;;2.08;1.00;;;21.90;99.90;;;;;;4988130;28;20380;-83
2023/05/07 10:04:11;;;;;;;1.10;0.70;;;22.20;99.90;;;;;;4991437;28;20063;-84
2023/05/07 10:06:37;;;;;;;1.83;1.00;;;22.40;99.90;;;;;;4990038;28;20490;-84
2023/05/07 10:09:07;;;;;;;1.08;0.77;;;22.60;99.90;;;;;;4990831;28;20045;-84
2023/05/07 10:11:35;;;;;;;1.25;0.80;;;22.80;99.90;;;;;;4990334;28;20061;-83
2023/05/07 10:14:03;;;;;;;1.88;1.00;;;23.00;99.90;;;;;;4990599;28;20077;-82
2023/05/07 10:16:36;;;;;;;1.75;0.70;;;23.20;99.20;;;;;;4990059;28;20414;-82
2023/05/07 10:19:07;;;;;;;0.90;0.60;;;22.80;99.80;;;;;;4994127;28;20080;-84
2023/05/07 10:21:37;;;;;;;1.50;1.08;;;23.10;99.90;;;;;;4990495;28;20035;-83
2023/05/07 10:24:14;;;;;;;4.45;0.98;;;23.10;99.60;;;;;;4990702;28;20030;-84
2023/05/07 10:26:46;;;;;;;1.60;0.80;;;23.40;98.50;;;;;;4987498;28;20185;-82
2023/05/07 10:29:26;;;;;;;2.25;1.08;;;23.70;98.60;;;;;;4970801;28;20038;-83
2023/05/07 10:32:38;;;;;;;1.45;0.57;;;23.90;98.90;;;;;;4988890;28;20039;-84
2023/05/07 10:35:11;;;;;;;1.58;1.00;;;24.10;98.30;;;;;;4992056;28;20034;-82
2023/05/07 10:37:37;;;;;;;1.40;0.65;;;24.20;97.80;;;;;;4987475;28;20148;-83
2023/05/07 10:40:04;;;;;;;3.80;0.77;;;24.00;97.90;;;;;;4990784;28;20033;-83
2023/05/07 10:42:30;;;;;;;2.75;1.40;;;24.10;97.80;;;;;;4987881;28;20125;-83
2023/05/07 10:44:56;;;;;;;1.83;0.90;;;24.60;97.00;;;;;;4995007;28;20072;-84
2023/05/07 10:47:22;;;;;;;1.15;0.80;;;24.70;96.70;;;;;;4989571;28;20394;-84
2023/05/07 10:49:48;;;;;;;1.00;0.80;;;24.50;96.50;;;;;;4993734;28;20053;-83
2023/05/07 10:52:16;;;;;;;1.90;0.90;;;24.70;96.80;;;;;;4987526;28;20041;-83
2023/05/07 10:54:46;;;;;;;2.40;1.55;;;25.10;97.20;;;;;;4987056;28;20035;-83
2023/05/07 10:57:30;;;;;;;1.33;0.70;;;25.40;95.90;;;;;;4987958;28;20026;-84
2023/05/07 10:59:56;;;;;;;0.68;0.50;;;25.30;93.90;;;;;;4985726;28;20317;-86
2023/05/07 11:02:22;;;;;;;1.33;0.50;;;24.90;94.90;;;;;;4986858;28;20473;-84
2023/05/07 11:05:22;;;;;;;2.28;0.98;;;24.70;94.40;;;;;;4991643;28;20104;-85
2023/05/07 11:08:17;;;;;;;1.58;0.80;;;25.10;95.40;;;;;;4985696;28;20057;-84
2023/05/07 11:10:58;;;;;;;1.55;0.65;;;25.70;94.30;;;;;;4983206;28;20042;-84
2023/05/07 11:13:44;;;;;;;2.97;0.93;;;25.90;93.40;;;;;;4987091;28;20037;-86
2023/05/07 11:16:41;;;;;;;1.23;0.85;;;25.90;93.60;;;;;;4951745;29;20503;-84
2023/05/07 11:19:07;;;;;;;1.15;0.60;;;25.70;93.80;;;;;;4974878;28;20050;-84
2023/05/07 11:21:38;;;;;;;2.00;0.93;;;25.30;93.10;;;;;;4972171;28;20034;-84
2023/05/07 11:24:10;;;;;;;1.08;0.70;;;25.30;93.50;;;;;;4973776;28;20022;-82
2023/05/07 11:27:04;;;;;;;1.35;0.70;;;25.60;92.90;;;;;;4989633;28;20707;-84
2023/05/07 11:29:31;;;;;;;1.02;0.60;;;25.70;93.30;;;;;;4962196;28;20053;-77
2023/05/07 11:31:57;;;;;;;1.85;1.08;;;26.30;93.20;;;;;;4982818;28;20069;-90
2023/05/07 11:34:26;;;;;;;3.40;0.73;;;26.30;92.50;;;;;;4962926;28;20054;-86
2023/05/07 11:36:52;;;;;;;1.23;0.80;;;26.70;92.40;;;;;;4964185;28;20088;-82
2023/05/07 11:39:32;;;;;;;1.42;0.50;;;26.60;92.40;;;;;;4991605;28;20433;-83
2023/05/07 11:42:02;;;;;;;1.30;0.90;;;26.50;92.60;;;;;;4963140;28;20028;-87
2023/05/07 11:44:45;;;;;;;1.17;0.65;;;26.20;92.30;;;;;;4991105;28;20080;-88
2023/05/07 11:47:17;;;;;;;2.25;0.98;;;27.00;92.00;;;;;;4989915;28;20113;-83
2023/05/07 11:49:44;;;;;;;1.30;0.60;;;26.80;92.80;;;;;;4984129;28;20026;-85
2023/05/07 11:52:10;;;;;;;1.55;0.80;;;27.10;92.30;;;;;;4988594;28;20062;-79
2023/05/07 11:54:37;;;;;;;5.88;1.00;;;27.40;91.70;;;;;;4989825;28;20061;-81
2023/05/07 11:57:03;;;;;;;1.77;0.70;;;27.70;90.10;;;;;;4986092;28;20169;-83
2023/05/07 11:59:28;;;;;;;1.05;0.57;;;27.50;90.10;;;;;;4979167;28;20114;-83
2023/05/07 12:01:59;;;;;;;2.38;1.20;;;27.50;90.20;;;;;;4971892;28;20376;-83
2023/05/07 12:04:25;;;;;;;1.85;0.90;;;27.80;90.00;;;;;;4991204;28;20038;-81
2023/05/07 12:06:55;;;;;;;2.63;0.60;;;27.70;89.80;;;;;;4989309;28;20030;-84
2023/05/07 12:09:21;;;;;;;;;;;27.60;88.90;;;;;;4999764;28;20177;-85
2023/05/07 12:11:47;;;;;;;1.25;0.60;;;27.80;87.40;;;;;;4995770;28;19996;-85
2023/05/07 12:14:15;;;;;;;0.60;0.47;;;27.20;89.70;;;;;;4998500;28;20037;-83
2023/05/07 12:16:41;;;;;;;1.13;0.85;;;27.60;87.30;;;;;;4994803;28;20026;-83
2023/05/07 12:19:12;;;;;;;3.97;0.70;;;28.00;87.60;;;;;;4978633;28;20120;-81
2023/05/07 12:21:38;;;;;;;0.82;0.60;;;27.90;88.60;;;;;;4991592;28;20026;-78
2023/05/07 12:24:05;;;;;;;3.72;0.88;;;28.00;88.40;;;;;;4993983;28;20386;-77
2023/05/07 12:26:31;;;;;;;1.17;0.70;;;29.10;85.40;;;;;;4993045;28;20037;-76
2023/05/07 12:29:00;;;;;;;1.38;0.73;;;29.10;86.30;;;;;;4985947;28;20252;-76
2023/05/07 12:31:26;;;;;;;1.40;0.88;;;28.90;83.10;;;;;;4993718;28;20042;-79
2023/05/07 12:33:52;;;;;;;1.30;0.60;;;28.00;85.00;;;;;;4989339;28;20121;-79
2023/05/07 12:36:18;;;;;;;0.80;0.70;;;29.00;83.80;;;;;;4994271;28;20060;-77
2023/05/07 12:38:44;;;;;;;1.05;0.60;;;28.70;82.80;;;;;;4989638;28;20809;-78
2023/05/07 12:41:12;;;;;;;1.33;0.80;;;28.90;82.70;;;;;;4994203;28;20031;-78
2023/05/07 12:43:39;;;;;;;1.35;0.73;;;28.60;82.70;;;;;;4988975;28;20149;-79
2023/05/07 12:46:07;;;;;;;2.95;0.80;;;28.90;81.20;;;;;;4994305;28;20462;-79
2023/05/07 12:48:33;;;;;;;0.95;0.55;;;28.50;82.30;;;;;;4990357;28;20069;-79